createdAt,value
2018-06-01T00:02:26.374Z,96929.37
2018-06-01T00:05:49.672Z,96928.27
2018-06-01T00:09:18.324Z,96931.09
2018-06-01T00:12:43.103Z,96938.27
2018-06-01T00:16:08.326Z,96934.52
2018-06-01T00:19:32.219Z,96935.91
2018-06-01T00:22:57.271Z,96938.78
2018-06-01T00:26:20.746Z,96935.48
2018-06-01T00:29:44.208Z,96941.30
2018-06-01T00:33:07.624Z,96941.88
2018-06-01T00:36:31.030Z,96939.88
2018-06-01T00:39:54.454Z,96940.98
2018-06-01T00:43:17.739Z,96945.80
2018-06-01T00:46:41.561Z,96944.58
2018-06-01T00:50:06.870Z,96942.92
2018-06-01T00:53:30.358Z,96934.63
2018-06-01T00:56:53.797Z,96936.36
2018-06-01T01:00:17.242Z,96941.07
2018-06-01T01:03:40.764Z,96935.59
2018-06-01T01:07:04.205Z,96941.38
2018-06-01T01:10:27.615Z,96947.56
2018-06-01T01:13:51.024Z,96935.84
2018-06-01T01:17:19.245Z,96936.32
2018-06-01T01:20:44.222Z,96934.53
2018-06-01T01:24:07.703Z,96933.80
2018-06-01T01:27:33.253Z,96936.02
2018-06-01T01:30:56.642Z,96936.69
2018-06-01T01:34:20.044Z,96936.11
2018-06-01T01:37:43.543Z,96935.86
2018-06-01T01:41:06.909Z,96942.97
2018-06-01T01:44:30.399Z,96948.41
2018-06-01T01:47:53.788Z,96948.99
2018-06-01T01:51:17.223Z,96953.52
2018-06-01T01:54:40.814Z,96954.61
2018-06-01T01:58:04.287Z,96942.67
2018-06-01T02:01:27.695Z,96947.00
2018-06-01T02:04:51.304Z,96947.72
2018-06-01T02:08:14.728Z,96951.22
2018-06-01T02:11:38.184Z,96951.84
2018-06-01T02:15:01.648Z,96953.52
2018-06-01T02:18:25.061Z,96947.85
2018-06-01T02:21:48.622Z,96950.42
2018-06-01T02:25:11.938Z,96949.31
2018-06-01T02:28:35.356Z,96950.23
2018-06-01T02:31:58.767Z,96959.98
2018-06-01T02:35:24.268Z,96944.89
2018-06-01T02:38:47.706Z,96946.42
2018-06-01T02:42:13.362Z,96951.78
2018-06-01T02:45:36.695Z,96952.70
2018-06-01T02:49:00.090Z,96959.75
2018-06-01T02:52:23.648Z,96957.70
2018-06-01T02:55:46.929Z,96958.45
2018-06-01T02:59:10.381Z,96963.02
2018-06-01T03:02:33.767Z,96952.72
2018-06-01T03:05:57.282Z,96957.90
2018-06-01T03:09:20.742Z,96965.27
2018-06-01T03:12:44.174Z,96958.25
2018-06-01T03:16:07.620Z,96959.63
2018-06-01T03:19:31.054Z,96959.84
2018-06-01T03:22:54.435Z,96955.44
2018-06-01T03:26:17.992Z,96956.92
2018-06-01T03:29:42.846Z,96962.17
2018-06-01T03:33:06.957Z,96962.25
2018-06-01T03:36:30.275Z,96960.86
2018-06-01T03:39:53.822Z,96964.73
2018-06-01T03:43:17.164Z,96973.14
2018-06-01T03:46:40.604Z,96970.81
2018-06-01T03:50:04.074Z,96972.22
2018-06-01T03:53:29.624Z,96963.28
2018-06-01T03:56:52.983Z,96968.84
2018-06-01T04:00:17.979Z,96965.31
2018-06-01T04:03:42.096Z,96969.98
2018-06-01T04:07:05.532Z,96964.45
2018-06-01T04:10:31.050Z,96958.55
2018-06-01T04:13:54.459Z,96961.39
2018-06-01T04:17:18.006Z,96954.94
2018-06-01T04:20:41.344Z,96954.16
2018-06-01T04:24:04.833Z,96951.63
2018-06-01T04:27:28.471Z,96953.03
2018-06-01T04:30:51.855Z,96950.22
2018-06-01T04:34:15.249Z,96945.94
2018-06-01T04:37:38.689Z,96955.98
2018-06-01T04:41:02.125Z,96965.36
2018-06-01T04:44:25.719Z,96966.34
2018-06-01T04:47:49.050Z,96967.73
2018-06-01T04:51:12.489Z,96966.70
2018-06-01T04:54:35.883Z,96974.09
2018-06-01T04:57:59.168Z,96973.70
2018-06-01T05:01:22.452Z,96981.02
2018-06-01T05:04:46.229Z,96985.52
2018-06-01T05:08:09.634Z,96992.76
2018-06-01T05:11:33.157Z,96999.29
2018-06-01T05:14:56.481Z,96989.20
2018-06-01T05:18:19.930Z,96997.67
2018-06-01T05:21:43.458Z,96995.11
2018-06-01T05:25:06.923Z,96991.45
2018-06-01T05:28:30.397Z,96994.22
2018-06-01T05:31:53.785Z,96986.51
2018-06-01T05:35:17.125Z,97000.34
2018-06-01T05:38:40.791Z,96994.36
2018-06-01T05:42:04.089Z,96995.42
2018-06-01T05:45:27.529Z,96995.04
2018-06-01T05:48:51.045Z,97001.32
2018-06-01T05:52:16.822Z,97006.14
2018-06-01T05:55:40.238Z,97004.72
2018-06-01T05:59:03.673Z,97008.72
2018-06-01T06:02:29.391Z,97011.30
2018-06-01T06:05:52.701Z,97010.14
2018-06-01T06:09:16.171Z,97011.04
2018-06-01T06:12:39.603Z,97007.11
2018-06-01T06:16:03.407Z,97013.33
2018-06-01T06:19:27.031Z,97010.95
2018-06-01T06:22:50.346Z,97008.75
2018-06-01T06:26:13.809Z,97008.03
2018-06-01T06:29:37.779Z,97010.52
2018-06-01T06:33:01.229Z,97015.66
2018-06-01T06:36:26.794Z,97015.73
2018-06-01T06:39:50.196Z,97015.23
2018-06-01T06:43:13.767Z,97019.14
2018-06-01T06:46:37.182Z,97018.16
2018-06-01T06:50:00.651Z,97021.49
2018-06-01T06:53:24.067Z,97023.26
2018-06-01T06:56:47.641Z,97025.06
2018-06-01T07:00:13.225Z,97032.34
2018-06-01T07:03:36.895Z,97016.23
2018-06-01T07:07:02.289Z,97024.64
2018-06-01T07:10:25.794Z,97023.96
2018-06-01T07:13:51.385Z,97016.66
2018-06-01T07:17:14.774Z,97021.07
2018-06-01T07:20:38.241Z,97015.91
2018-06-01T07:24:01.811Z,97012.56
2018-06-01T07:27:25.132Z,97016.28
2018-06-01T07:30:48.596Z,97015.16
2018-06-01T07:34:14.133Z,97014.67
2018-06-01T07:37:37.596Z,97014.13
2018-06-01T07:41:02.721Z,97020.19
2018-06-01T07:44:27.614Z,97017.41
2018-06-01T07:47:51.664Z,97016.23
2018-06-01T07:51:17.366Z,97024.58
2018-06-01T07:54:40.911Z,97020.34
2018-06-01T07:58:04.341Z,97029.00
2018-06-01T08:01:28.553Z,97020.22
2018-06-01T08:04:53.520Z,97024.08
2018-06-01T08:08:16.886Z,97022.22
2018-06-01T08:11:41.545Z,97024.19
2018-06-01T08:15:05.268Z,97025.50
2018-06-01T08:18:28.683Z,97028.36
2018-06-01T08:21:52.061Z,97031.09
2018-06-01T08:25:15.634Z,97025.48
2018-06-01T08:28:39.780Z,97032.28
2018-06-01T08:32:03.939Z,97024.53
2018-06-01T08:35:28.925Z,97032.47
2018-06-01T08:38:53.257Z,97031.61
2018-06-01T08:42:16.824Z,97030.26
2018-06-01T08:45:40.333Z,97027.30
2018-06-01T08:49:03.977Z,97031.93
2018-06-01T08:52:27.605Z,97025.52
2018-06-01T08:55:51.165Z,97024.40
2018-06-01T08:59:14.611Z,97034.99
2018-06-01T09:02:37.999Z,97030.34
2018-06-01T09:06:02.098Z,97031.38
2018-06-01T09:09:27.109Z,97039.33
2018-06-01T09:12:50.551Z,97040.55
2018-06-01T09:16:15.617Z,97045.80
2018-06-01T09:19:39.998Z,97046.83
2018-06-01T09:23:03.527Z,97037.86
2018-06-01T09:26:26.968Z,97041.55
2018-06-01T09:29:52.671Z,97038.59
2018-06-01T09:33:16.047Z,97041.16
2018-06-01T09:36:39.511Z,97030.34
2018-06-01T09:40:05.003Z,97036.66
2018-06-01T09:43:28.420Z,97034.20
2018-06-01T09:46:51.879Z,97034.77
2018-06-01T09:50:15.193Z,97038.27
2018-06-01T09:53:38.797Z,97026.23
2018-06-01T09:57:04.316Z,97020.55
2018-06-01T10:00:33.492Z,97023.53
2018-06-01T10:03:57.578Z,97022.56
2018-06-01T10:07:21.188Z,97019.56
2018-06-01T10:10:44.535Z,97017.23
2018-06-01T10:14:08.016Z,97019.52
2018-06-01T10:17:31.534Z,97016.41
2018-06-01T10:20:55.104Z,97010.42
2018-06-01T10:24:18.870Z,97011.45
2018-06-01T10:27:42.977Z,97015.93
2018-06-01T10:31:06.733Z,97007.67
2018-06-01T10:34:30.188Z,97013.47
2018-06-01T10:37:53.820Z,97006.13
2018-06-01T10:41:17.254Z,97011.67
2018-06-01T10:44:40.755Z,97017.57
2018-06-01T10:48:04.683Z,97006.13
2018-06-01T10:51:29.777Z,96998.37
2018-06-01T10:54:53.178Z,97002.36
2018-06-01T10:58:17.238Z,96999.86
2018-06-01T11:01:40.896Z,97008.53
2018-06-01T11:05:04.582Z,97002.36
2018-06-01T11:08:27.973Z,96998.98
2018-06-01T11:11:51.484Z,96998.34
2018-06-01T11:15:17.022Z,96999.16
2018-06-01T11:18:40.325Z,97003.84
2018-06-01T11:22:04.060Z,96989.74
2018-06-01T11:25:27.636Z,96984.80
2018-06-01T11:28:52.625Z,96979.64
2018-06-01T11:32:17.050Z,96976.13
2018-06-01T11:35:41.988Z,96973.59
2018-06-01T11:39:07.964Z,96971.09
2018-06-01T11:42:31.654Z,96969.95
2018-06-01T11:45:57.057Z,96979.91
2018-06-01T11:49:22.396Z,96967.52
2018-06-01T11:52:46.457Z,96967.73
2018-06-01T11:56:11.553Z,96957.55
2018-06-01T11:59:35.143Z,96952.84
2018-06-01T12:03:00.169Z,96955.91
2018-06-01T12:06:25.615Z,96947.28
2018-06-01T12:09:49.746Z,96938.84
2018-06-01T12:13:13.152Z,96942.11
2018-06-01T12:16:38.161Z,96937.78
2018-06-01T12:20:03.449Z,96935.20
2018-06-01T12:23:27.440Z,96929.56
2018-06-01T12:26:53.496Z,96931.27
2018-06-01T12:30:16.943Z,96915.75
2018-06-01T12:33:40.435Z,96920.45
2018-06-01T12:37:03.935Z,96918.09
2018-06-01T12:40:27.639Z,96916.37
2018-06-01T12:43:52.892Z,96922.05
2018-06-01T12:47:16.347Z,96911.41
2018-06-01T12:50:39.810Z,96917.73
2018-06-01T12:54:04.539Z,96896.55
2018-06-01T12:57:29.755Z,96905.00
2018-06-01T13:00:55.083Z,96895.23
2018-06-01T13:04:19.920Z,96897.28
2018-06-01T13:07:43.980Z,96890.72
2018-06-01T13:11:07.593Z,96896.59
2018-06-01T13:14:33.457Z,96897.50
2018-06-01T13:17:58.549Z,96889.30
2018-06-01T13:21:22.919Z,96888.44
2018-06-01T13:24:47.732Z,96895.54
2018-06-01T13:28:11.446Z,96883.66
2018-06-01T13:31:34.905Z,96884.70
2018-06-01T13:34:59.116Z,96882.50
2018-06-01T13:38:24.035Z,96881.42
2018-06-01T13:41:47.319Z,96873.75
2018-06-01T13:45:11.162Z,96862.03
2018-06-01T13:48:34.930Z,96872.77
2018-06-01T13:52:00.099Z,96869.86
2018-06-01T13:55:24.108Z,96859.81
2018-06-01T13:58:47.696Z,96864.94
2018-06-01T14:02:11.156Z,96865.66
2018-06-01T14:05:36.639Z,96866.09
2018-06-01T14:09:00.346Z,96865.12
2018-06-01T14:12:23.935Z,96858.19
2018-06-01T14:15:47.575Z,96859.95
2018-06-01T14:19:11.500Z,96855.66
2018-06-01T14:22:36.794Z,96863.16
2018-06-01T14:26:00.346Z,96852.95
2018-06-01T14:29:23.926Z,96854.40
2018-06-01T14:32:47.319Z,96858.07
2018-06-01T14:36:10.771Z,96863.69
2018-06-01T14:39:34.232Z,96864.62
2018-06-01T14:42:59.765Z,96864.12
2018-06-01T14:46:23.215Z,96866.59
2018-06-01T14:49:46.814Z,96869.86
2018-06-01T14:53:10.650Z,96856.88
2018-06-01T14:56:34.133Z,96858.00
2018-06-01T14:59:59.091Z,96858.67
2018-06-01T15:03:23.896Z,96859.73
2018-06-01T15:06:47.387Z,96861.34
2018-06-01T15:10:13.100Z,96857.77
2018-06-01T15:13:36.688Z,96862.11
2018-06-01T15:17:00.330Z,96853.52
2018-06-01T15:20:23.639Z,96860.97
2018-06-01T15:23:48.199Z,96853.81
2018-06-01T15:27:17.995Z,96852.27
2018-06-01T15:30:43.288Z,96857.81
2018-06-01T15:34:06.686Z,96853.05
2018-06-01T15:37:32.414Z,96840.27
2018-06-01T15:40:57.928Z,96851.73
2018-06-01T15:44:21.358Z,96846.37
2018-06-01T15:47:46.846Z,96847.64
2018-06-01T15:51:12.414Z,96846.13
2018-06-01T15:54:38.306Z,96848.55
2018-06-01T15:58:03.552Z,96860.77
2018-06-01T16:01:26.975Z,96847.86
2018-06-01T16:04:50.379Z,96854.01
2018-06-01T16:08:13.821Z,96856.73
2018-06-01T16:11:37.490Z,96853.79
2018-06-01T16:15:00.800Z,96866.34
2018-06-01T16:18:24.215Z,96868.69
2018-06-01T16:21:47.605Z,96862.27
2018-06-01T16:25:11.062Z,96860.37
2018-06-01T16:28:34.520Z,96862.83
2018-06-01T16:31:58.097Z,96868.47
2018-06-01T16:35:21.488Z,96870.20
2018-06-01T16:38:47.049Z,96872.09
2018-06-01T16:42:10.469Z,96889.84
2018-06-01T16:45:34.012Z,96910.99
2018-06-01T16:48:59.509Z,96917.19
2018-06-01T16:52:23.750Z,96911.25
2018-06-01T16:55:49.299Z,96913.63
2018-06-01T16:59:14.745Z,96923.96
2018-06-01T17:02:38.154Z,96920.88
2018-06-01T17:06:01.743Z,96928.16
2018-06-01T17:09:25.084Z,96931.57
2018-06-01T17:12:48.607Z,96934.81
2018-06-01T17:16:14.159Z,96927.36
2018-06-01T17:19:37.670Z,96925.73
2018-06-01T17:23:01.175Z,96927.03
2018-06-01T17:26:24.653Z,96927.56
2018-06-01T17:29:48.828Z,96927.02
2018-06-01T17:33:15.790Z,96928.84
2018-06-01T17:36:42.844Z,96921.92
2018-06-01T17:40:06.982Z,96917.67
2018-06-01T17:43:30.468Z,96907.81
2018-06-01T17:46:56.140Z,96905.85
2018-06-01T17:50:19.624Z,96904.81
2018-06-01T17:53:44.974Z,96897.95
2018-06-01T17:57:09.934Z,96899.87
2018-06-01T18:00:34.021Z,96903.59
2018-06-01T18:03:57.563Z,96907.43
2018-06-01T18:07:23.114Z,96917.77
2018-06-01T18:10:46.595Z,96918.67
2018-06-01T18:14:10.133Z,96929.55
2018-06-01T18:17:35.540Z,96930.28
2018-06-01T18:20:59.703Z,96932.25
2018-06-01T18:24:25.333Z,96930.21
2018-06-01T18:27:54.434Z,96931.12
2018-06-01T18:31:18.675Z,96931.13
2018-06-01T18:34:42.171Z,96933.14
2018-06-01T18:38:05.557Z,96937.20
2018-06-01T18:41:31.893Z,96935.45
2018-06-01T18:44:56.669Z,96943.26
2018-06-01T18:48:20.169Z,96950.72
2018-06-01T18:51:47.223Z,96954.39
2018-06-01T18:55:11.654Z,96956.00
2018-06-01T18:58:34.938Z,96956.92
2018-06-01T19:01:58.376Z,96966.58
2018-06-01T19:05:21.875Z,96964.86
2018-06-01T19:08:45.507Z,96972.75
2018-06-01T19:12:08.863Z,96978.61
2018-06-01T19:15:32.784Z,96983.33
2018-06-01T19:18:57.923Z,96995.95
2018-06-01T19:22:21.285Z,96999.45
2018-06-01T19:25:46.954Z,97006.73
2018-06-01T19:29:10.411Z,97013.48
2018-06-01T19:32:33.874Z,97010.15
2018-06-01T19:35:57.288Z,97016.81
2018-06-01T19:39:22.865Z,97020.33
2018-06-01T19:42:46.425Z,97025.34
2018-06-01T19:46:09.790Z,97032.27
2018-06-01T19:49:33.356Z,97037.13
2018-06-01T19:52:58.290Z,97037.30
2018-06-01T19:56:22.487Z,97039.86
2018-06-01T19:59:46.144Z,97046.96
2018-06-01T20:03:11.536Z,97052.20
2018-06-01T20:06:37.142Z,97056.64
2018-06-01T20:10:00.688Z,97059.45
2018-06-01T20:13:26.245Z,97064.09
2018-06-01T20:16:49.640Z,97062.58
2018-06-01T20:20:13.151Z,97057.52
2018-06-01T20:23:36.586Z,97058.46
2018-06-01T20:27:00.286Z,97059.82
2018-06-01T20:30:44.286Z,97063.28
2018-06-01T20:34:08.339Z,97057.17
2018-06-01T20:37:31.726Z,97054.51
2018-06-01T20:40:55.143Z,97057.38
2018-06-01T20:44:18.678Z,97057.70
2018-06-01T20:47:42.215Z,97058.42
2018-06-01T20:51:05.836Z,97057.26
2018-06-01T20:54:29.119Z,97058.37
2018-06-01T20:57:54.818Z,97058.52
2018-06-01T21:01:20.525Z,97060.03
2018-06-01T21:04:45.792Z,97056.05
2018-06-01T21:08:09.982Z,97056.79
2018-06-01T21:11:34.787Z,97051.77
2018-06-01T21:14:58.156Z,97054.44
2018-06-01T21:18:21.604Z,97055.48
2018-06-01T21:21:45.079Z,97060.66
2018-06-01T21:25:08.526Z,97058.74
2018-06-01T21:28:34.065Z,97058.07
2018-06-01T21:31:58.933Z,97058.14
2018-06-01T21:35:24.527Z,97066.00
2018-06-01T21:38:48.623Z,97068.78
2018-06-01T21:42:14.188Z,97066.95
2018-06-01T21:45:37.700Z,97070.73
2018-06-01T21:49:01.120Z,97073.24
2018-06-01T21:52:24.793Z,97069.32
2018-06-01T21:55:48.151Z,97078.57
2018-06-01T21:59:13.344Z,97086.85
2018-06-01T22:02:37.345Z,97091.00
2018-06-01T22:06:00.828Z,97091.20
2018-06-01T22:09:24.415Z,97090.36
2018-06-01T22:12:47.902Z,97086.89
2018-06-01T22:16:11.370Z,97080.89
2018-06-01T22:19:34.955Z,97076.30
2018-06-01T22:23:00.292Z,97084.03
2018-06-01T22:26:23.906Z,97094.58
2018-06-01T22:29:49.032Z,97082.93
2018-06-01T22:33:13.437Z,97087.95
2018-06-01T22:36:37.110Z,97076.84
2018-06-01T22:40:01.463Z,97077.56
2018-06-01T22:43:25.985Z,97076.14
2018-06-01T22:46:50.904Z,97066.97
2018-06-01T22:50:15.254Z,97061.16
2018-06-01T22:53:44.370Z,97057.57
2018-06-01T22:57:08.432Z,97054.36
2018-06-01T23:00:47.988Z,97055.80
2018-06-01T23:04:14.034Z,97055.81
2018-06-01T23:07:41.725Z,97049.72
2018-06-01T23:11:05.964Z,97051.77
2018-06-01T23:14:29.739Z,97054.31
2018-06-01T23:17:53.491Z,97051.20
2018-06-01T23:21:16.905Z,97048.64
2018-06-01T23:24:40.315Z,97042.06
2018-06-01T23:28:03.760Z,97045.30
2018-06-01T23:31:27.153Z,97039.25
2018-06-01T23:34:57.564Z,97033.41
2018-06-01T23:38:22.449Z,97026.50
2018-06-01T23:41:45.871Z,97020.97
2018-06-01T23:45:09.290Z,97020.50
2018-06-01T23:48:32.731Z,97018.56
2018-06-01T23:51:56.387Z,97026.34
2018-06-01T23:55:19.667Z,97025.85
2018-06-01T23:58:43.190Z,97023.77
